createdAt,value
2018-01-20T00:02:21.566Z,3.50
2018-01-20T00:04:48.994Z,3.63
2018-01-20T00:07:16.441Z,3.60
2018-01-20T00:09:55.591Z,2.97
2018-01-20T00:12:23.095Z,2.87
2018-01-20T00:14:50.589Z,3.77
2018-01-20T00:17:18.057Z,3.70
2018-01-20T00:19:45.501Z,3.47
2018-01-20T00:22:24.827Z,3.30
2018-01-20T00:24:57.892Z,3.83
2018-01-20T00:27:25.349Z,3.80
2018-01-20T00:29:53.943Z,3.27
2018-01-20T00:32:21.395Z,4.10
2018-01-20T00:34:48.877Z,3.60
2018-01-20T00:37:16.318Z,3.33
2018-01-20T00:39:43.773Z,4.17
2018-01-20T00:42:11.298Z,3.70
2018-01-20T00:44:38.760Z,4.33
2018-01-20T00:47:06.287Z,3.33
2018-01-20T00:49:33.732Z,3.43
2018-01-20T00:52:01.183Z,3.60
2018-01-20T00:54:28.657Z,3.57
2018-01-20T00:56:56.176Z,3.87
2018-01-20T00:59:23.628Z,3.70
2018-01-20T01:01:51.092Z,3.93
2018-01-20T01:04:18.576Z,4.40
2018-01-20T01:06:46.057Z,4.33
2018-01-20T01:09:13.609Z,5.03
2018-01-20T01:11:41.039Z,4.40
2018-01-20T01:14:08.546Z,4.10
2018-01-20T01:16:35.990Z,3.60
2018-01-20T01:19:03.433Z,3.90
2018-01-20T01:21:30.906Z,4.53
2018-01-20T01:23:58.351Z,4.53
2018-01-20T01:26:25.804Z,4.60
2018-01-20T01:28:53.303Z,4.43
2018-01-20T01:31:20.755Z,4.03
2018-01-20T01:33:48.219Z,3.77
2018-01-20T01:36:15.674Z,4.30
2018-01-20T01:38:43.157Z,3.57
2018-01-20T01:41:10.590Z,3.50
2018-01-20T01:43:38.070Z,3.83
2018-01-20T01:46:05.720Z,3.37
2018-01-20T01:48:33.183Z,3.87
2018-01-20T01:51:00.652Z,3.03
2018-01-20T01:53:28.114Z,2.80
2018-01-20T01:55:55.563Z,3.40
2018-01-20T01:58:23.047Z,3.20
2018-01-20T02:00:50.490Z,4.13
2018-01-20T02:03:17.942Z,3.80
2018-01-20T02:05:45.412Z,3.30
2018-01-20T02:08:12.854Z,3.30
2018-01-20T02:10:40.348Z,3.60
2018-01-20T02:13:07.827Z,2.90
2018-01-20T02:15:35.291Z,4.17
2018-01-20T02:18:02.763Z,3.17
2018-01-20T02:20:30.223Z,3.17
2018-01-20T02:22:57.678Z,2.80
2018-01-20T02:25:25.140Z,2.80
2018-01-20T02:27:52.668Z,3.37
2018-01-20T02:30:20.146Z,3.33
2018-01-20T02:32:47.610Z,3.27
2018-01-20T02:35:15.064Z,3.10
2018-01-20T02:37:42.497Z,3.27
2018-01-20T02:40:09.951Z,3.33
2018-01-20T02:42:37.437Z,3.40
2018-01-20T02:45:04.887Z,2.97
2018-01-20T02:47:32.353Z,3.50
2018-01-20T02:49:59.810Z,3.07
2018-01-20T02:52:27.260Z,3.30
2018-01-20T02:54:54.735Z,3.30
2018-01-20T02:57:22.214Z,3.40
2018-01-20T02:59:49.646Z,3.60
2018-01-20T03:02:17.150Z,3.07
2018-01-20T03:04:44.679Z,3.00
2018-01-20T03:07:12.112Z,3.17
2018-01-20T03:09:39.570Z,3.20
2018-01-20T03:12:07.061Z,3.17
2018-01-20T03:14:34.510Z,3.53
2018-01-20T03:17:01.950Z,2.90
2018-01-20T03:19:29.408Z,3.33
2018-01-20T03:21:56.856Z,3.40
2018-01-20T03:24:24.388Z,3.83
2018-01-20T03:26:51.841Z,2.47
2018-01-20T03:29:19.311Z,3.40
2018-01-20T03:31:46.774Z,3.70
2018-01-20T03:34:14.214Z,3.43
2018-01-20T03:36:41.684Z,3.30
2018-01-20T03:39:09.173Z,3.57
2018-01-20T03:41:36.618Z,2.90
2018-01-20T03:44:04.090Z,3.60
2018-01-20T03:46:31.562Z,3.90
2018-01-20T03:48:59.007Z,4.00
2018-01-20T03:51:26.469Z,3.70
2018-01-20T03:53:53.915Z,4.40
2018-01-20T03:56:21.402Z,3.97
2018-01-20T03:58:48.858Z,4.07
2018-01-20T04:01:16.299Z,3.77
2018-01-20T04:03:44.918Z,3.90
2018-01-20T04:06:12.374Z,4.33
2018-01-20T04:08:39.891Z,3.97
2018-01-20T04:11:07.356Z,4.20
2018-01-20T04:13:34.800Z,4.73
2018-01-20T04:16:02.261Z,3.73
2018-01-20T04:18:29.699Z,3.73
2018-01-20T04:20:57.155Z,3.20
2018-01-20T04:23:24.609Z,4.30
2018-01-20T04:25:52.067Z,4.00
2018-01-20T04:28:19.554Z,3.50
2018-01-20T04:30:46.982Z,4.00
2018-01-20T04:33:14.413Z,3.93
2018-01-20T04:35:41.874Z,3.90
2018-01-20T04:38:09.324Z,5.90
2018-01-20T04:40:36.814Z,3.47
2018-01-20T04:43:04.277Z,3.70
2018-01-20T04:45:31.713Z,3.80
2018-01-20T04:47:59.187Z,4.10
2018-01-20T04:50:26.674Z,3.80
2018-01-20T04:52:54.125Z,2.83
2018-01-20T04:55:21.576Z,4.53
2018-01-20T04:57:49.019Z,2.53
2018-01-20T05:00:16.502Z,3.97
2018-01-20T05:02:44.864Z,3.80
2018-01-20T05:05:12.322Z,4.23
2018-01-20T05:07:39.819Z,2.80
2018-01-20T05:10:07.254Z,2.60
2018-01-20T05:12:34.699Z,2.80
2018-01-20T05:15:02.178Z,2.40
2018-01-20T05:17:29.610Z,3.03
2018-01-20T05:19:57.069Z,2.80
2018-01-20T05:22:24.525Z,3.20
2018-01-20T05:24:51.974Z,3.00
2018-01-20T05:27:19.438Z,3.40
2018-01-20T05:29:46.893Z,2.80
2018-01-20T05:32:14.351Z,2.80
2018-01-20T05:34:41.802Z,3.13
2018-01-20T05:37:09.264Z,3.30
2018-01-20T05:39:36.739Z,3.70
2018-01-20T05:42:04.215Z,3.60
2018-01-20T05:44:31.673Z,3.80
2018-01-20T05:46:59.131Z,4.10
2018-01-20T05:49:26.600Z,4.30
2018-01-20T05:51:54.065Z,3.73
2018-01-20T05:54:22.547Z,5.70
2018-01-20T05:56:49.990Z,5.13
2018-01-20T05:59:17.458Z,5.20
2018-01-20T06:01:44.906Z,6.00
2018-01-20T06:04:12.410Z,6.37
2018-01-20T06:06:39.851Z,5.40
2018-01-20T06:09:07.339Z,4.50
2018-01-20T06:11:34.875Z,8.37
2018-01-20T06:14:02.476Z,8.87
2018-01-20T06:16:29.943Z,9.07
2018-01-20T06:18:57.418Z,8.80
2018-01-20T06:21:24.882Z,8.80
2018-01-20T06:23:52.327Z,7.50
2018-01-20T06:26:19.795Z,7.32
2018-01-20T06:28:47.260Z,6.55
2018-01-20T06:31:14.728Z,5.30
2018-01-20T06:33:42.234Z,5.40
2018-01-20T06:36:09.679Z,5.20
2018-01-20T06:38:37.166Z,5.55
2018-01-20T06:41:04.650Z,4.80
2018-01-20T06:43:32.105Z,3.70
2018-01-20T06:45:59.763Z,3.97
2018-01-20T06:48:27.235Z,3.77
2018-01-20T06:50:54.786Z,3.53
2018-01-20T06:53:22.251Z,3.17
2018-01-20T06:55:49.713Z,2.30
2018-01-20T06:58:17.186Z,2.27
2018-01-20T07:00:44.699Z,2.37
2018-01-20T07:03:12.162Z,2.30
2018-01-20T07:05:39.716Z,1.90
2018-01-20T07:08:08.318Z,2.37
2018-01-20T07:10:35.778Z,2.03
2018-01-20T07:13:04.339Z,1.87
2018-01-20T07:15:33.439Z,2.10
2018-01-20T07:18:01.114Z,2.10
2018-01-20T07:20:32.234Z,2.00
2018-01-20T07:23:01.204Z,2.47
2018-01-20T07:25:28.911Z,3.07
2018-01-20T07:27:57.168Z,3.80
2018-01-20T07:30:24.927Z,4.80
2018-01-20T07:32:52.548Z,4.00
2018-01-20T07:35:19.995Z,5.97
2018-01-20T07:37:47.448Z,4.93
2018-01-20T07:40:14.904Z,5.13
2018-01-20T07:42:42.354Z,4.30
2018-01-20T07:45:09.798Z,3.93
2018-01-20T07:47:37.268Z,3.40
2018-01-20T07:50:04.730Z,3.60
2018-01-20T07:52:32.183Z,3.50
2018-01-20T07:54:59.640Z,2.50
2018-01-20T07:57:28.012Z,3.00
2018-01-20T07:59:55.475Z,2.53
2018-01-20T08:02:22.934Z,3.40
2018-01-20T08:04:50.404Z,3.90
2018-01-20T08:07:18.006Z,4.50
2018-01-20T08:09:48.583Z,4.50
2018-01-20T08:12:17.829Z,5.27
2018-01-20T08:14:45.308Z,5.53
2018-01-20T08:17:12.745Z,5.60
2018-01-20T08:19:40.244Z,5.57
2018-01-20T08:22:07.706Z,6.03
2018-01-20T08:24:35.261Z,6.47
2018-01-20T08:27:02.924Z,6.47
2018-01-20T08:29:30.372Z,6.77
2018-01-20T08:31:57.843Z,6.77
2018-01-20T08:34:25.320Z,7.00
2018-01-20T08:36:52.791Z,6.67
2018-01-20T08:39:20.227Z,6.60
2018-01-20T08:41:47.714Z,5.83
2018-01-20T08:44:15.194Z,7.00
2018-01-20T08:46:42.642Z,6.63
2018-01-20T08:49:10.146Z,7.07
2018-01-20T08:51:37.607Z,6.03
2018-01-20T08:54:05.094Z,6.03
2018-01-20T08:56:32.543Z,5.47
2018-01-20T08:59:06.293Z,6.27
2018-01-20T09:01:33.770Z,5.00
2018-01-20T09:04:01.238Z,5.27
2018-01-20T09:06:28.718Z,5.57
2018-01-20T09:08:56.237Z,4.63
2018-01-20T09:11:23.736Z,5.60
2018-01-20T09:13:51.189Z,5.10
2018-01-20T09:16:18.667Z,4.60
2018-01-20T09:18:46.116Z,5.07
2018-01-20T09:21:13.581Z,5.00
2018-01-20T09:23:41.023Z,4.73
2018-01-20T09:26:08.473Z,4.70
2018-01-20T09:28:35.938Z,5.70
2018-01-20T09:31:03.382Z,5.43
2018-01-20T09:33:30.866Z,4.30
2018-01-20T09:35:58.311Z,3.13
2018-01-20T09:38:25.767Z,3.10
2018-01-20T09:40:53.233Z,2.80
2018-01-20T09:43:20.663Z,3.10
2018-01-20T09:45:48.219Z,3.40
2018-01-20T09:48:15.663Z,3.30
2018-01-20T09:50:43.120Z,2.57
2018-01-20T09:53:10.595Z,2.90
2018-01-20T09:55:38.576Z,2.73
2018-01-20T09:58:06.097Z,3.00
2018-01-20T10:00:33.557Z,3.07
2018-01-20T10:03:01.086Z,2.90
2018-01-20T10:05:28.566Z,4.13
2018-01-20T10:07:55.994Z,3.30
2018-01-20T10:10:23.435Z,3.87
2018-01-20T10:12:51.013Z,2.63
2018-01-20T10:15:18.489Z,3.07
2018-01-20T10:17:45.926Z,2.10
2018-01-20T10:20:14.296Z,2.63
2018-01-20T10:22:41.738Z,2.07
2018-01-20T10:25:09.195Z,2.23
2018-01-20T10:27:36.682Z,3.03
2018-01-20T10:30:04.313Z,3.00
2018-01-20T10:32:31.789Z,2.30
2018-01-20T10:34:59.230Z,1.90
2018-01-20T10:37:26.757Z,2.03
2018-01-20T10:39:54.211Z,2.20
2018-01-20T10:42:21.812Z,2.30
2018-01-20T10:44:49.312Z,2.00
2018-01-20T10:47:16.765Z,2.20
2018-01-20T10:49:44.210Z,1.80
2018-01-20T10:52:12.438Z,2.20
2018-01-20T10:54:39.892Z,1.57
2018-01-20T10:57:07.350Z,1.60
2018-01-20T10:59:34.820Z,1.60
2018-01-20T11:02:02.476Z,1.67
2018-01-20T11:04:30.048Z,1.80
2018-01-20T11:06:57.562Z,1.50
2018-01-20T11:09:25.011Z,1.30
2018-01-20T11:11:52.530Z,2.00
2018-01-20T11:14:20.079Z,2.03
2018-01-20T11:16:47.599Z,1.80
2018-01-20T11:19:15.103Z,1.30
2018-01-20T11:21:42.624Z,1.90
2018-01-20T11:24:10.091Z,1.60
2018-01-20T11:26:37.565Z,1.70
2018-01-20T11:29:05.023Z,1.33
2018-01-20T11:31:32.639Z,1.20
2018-01-20T11:34:00.282Z,1.10
2018-01-20T11:36:27.997Z,1.00
2018-01-20T11:38:55.457Z,0.90
2018-01-20T11:41:22.937Z,0.93
2018-01-20T11:43:50.893Z,0.90
2018-01-20T11:46:18.462Z,0.70
2018-01-20T11:48:45.931Z,1.27
2018-01-20T11:51:13.571Z,1.20
2018-01-20T11:53:41.077Z,1.00
2018-01-20T11:56:08.634Z,1.33
2018-01-20T11:58:36.082Z,1.37
2018-01-20T12:01:03.633Z,1.20
2018-01-20T12:03:31.124Z,1.47
2018-01-20T12:05:58.690Z,1.10
2018-01-20T12:08:26.171Z,2.03
2018-01-20T12:10:53.826Z,3.90
2018-01-20T12:13:21.267Z,2.17
2018-01-20T12:15:48.723Z,2.43
2018-01-20T12:18:20.311Z,1.00
2018-01-20T12:20:47.924Z,1.50
2018-01-20T12:23:15.390Z,1.47
2018-01-20T12:25:43.271Z,1.20
2018-01-20T12:28:10.748Z,1.20
2018-01-20T12:30:38.218Z,1.60
2018-01-20T12:33:05.679Z,2.13
2018-01-20T12:35:36.222Z,2.07
2018-01-20T12:38:03.748Z,1.60
2018-01-20T12:40:31.303Z,1.27
2018-01-20T12:42:58.957Z,1.37
2018-01-20T12:45:26.439Z,1.43
2018-01-20T12:47:54.305Z,1.80
2018-01-20T12:50:21.762Z,1.30
2018-01-20T12:52:49.296Z,1.30
2018-01-20T12:55:16.808Z,1.50
2018-01-20T12:57:44.484Z,1.73
2018-01-20T13:00:12.062Z,1.83
2018-01-20T13:02:39.539Z,2.33
2018-01-20T13:05:07.026Z,1.57
2018-01-20T13:07:35.464Z,2.40
2018-01-20T13:10:03.115Z,2.27
2018-01-20T13:12:31.344Z,2.30
2018-01-20T13:14:58.832Z,1.87
2018-01-20T13:17:26.406Z,1.50
2018-01-20T13:19:53.943Z,1.80
2018-01-20T13:22:21.481Z,1.30
2018-01-20T13:24:48.953Z,1.40
2018-01-20T13:27:16.974Z,0.90
2018-01-20T13:29:44.654Z,0.90
2018-01-20T13:32:12.131Z,1.33
2018-01-20T13:34:39.672Z,1.27
2018-01-20T13:37:08.568Z,0.90
2018-01-20T13:39:36.978Z,1.43
2018-01-20T13:42:04.459Z,1.00
2018-01-20T13:44:31.915Z,0.90
2018-01-20T13:46:59.365Z,1.00
2018-01-20T13:49:27.787Z,1.30
2018-01-20T13:51:55.347Z,1.10
2018-01-20T13:54:22.865Z,0.80
2018-01-20T13:56:50.405Z,1.00
2018-01-20T13:59:18.021Z,1.20
2018-01-20T14:01:45.510Z,1.33
2018-01-20T14:04:13.058Z,1.33
2018-01-20T14:06:40.538Z,1.10
2018-01-20T14:09:08.056Z,1.80
2018-01-20T14:11:36.402Z,1.50
2018-01-20T14:14:03.912Z,1.10
2018-01-20T14:16:32.521Z,0.93
2018-01-20T14:19:00.674Z,0.80
2018-01-20T14:21:28.576Z,1.03
2018-01-20T14:23:57.419Z,1.10
2018-01-20T14:26:24.938Z,1.00
2018-01-20T14:28:53.149Z,1.13
2018-01-20T14:31:21.998Z,1.00
2018-01-20T14:33:49.776Z,1.40
2018-01-20T14:36:19.030Z,1.23
2018-01-20T14:38:46.484Z,1.30
2018-01-20T14:41:13.966Z,1.50
2018-01-20T14:43:42.440Z,0.93
2018-01-20T14:46:09.909Z,0.90
2018-01-20T14:48:38.362Z,0.90
2018-01-20T14:51:05.851Z,1.30
2018-01-20T14:53:33.339Z,0.80
2018-01-20T14:56:00.836Z,1.50
2018-01-20T14:58:28.345Z,1.00
2018-01-20T15:00:57.207Z,1.20
2018-01-20T15:03:25.228Z,1.10
2018-01-20T15:05:53.948Z,1.03
2018-01-20T15:08:21.431Z,1.20
2018-01-20T15:10:48.900Z,1.17
2018-01-20T15:13:16.345Z,1.00
2018-01-20T15:15:43.783Z,1.07
2018-01-20T15:18:11.278Z,1.17
2018-01-20T15:20:39.749Z,1.50
2018-01-20T15:23:12.444Z,0.90
2018-01-20T15:25:40.254Z,1.33
2018-01-20T15:28:10.586Z,1.30
2018-01-20T15:30:38.415Z,1.80
2018-01-20T15:33:05.891Z,1.27
2018-01-20T15:35:33.389Z,1.10
2018-01-20T15:38:00.907Z,1.23
2018-01-20T15:40:28.378Z,1.10
2018-01-20T15:42:55.818Z,1.30
2018-01-20T15:45:23.281Z,1.27
2018-01-20T15:47:51.176Z,1.40
2018-01-20T15:50:18.755Z,1.40
2018-01-20T15:52:46.244Z,1.73
2018-01-20T15:55:13.727Z,1.73
2018-01-20T15:57:41.301Z,1.30
2018-01-20T16:00:08.774Z,1.20
2018-01-20T16:02:36.246Z,1.33
2018-01-20T16:05:03.702Z,0.97
2018-01-20T16:07:31.715Z,1.10
2018-01-20T16:09:59.206Z,1.40
2018-01-20T16:12:26.770Z,3.33
2018-01-20T16:14:54.355Z,1.63
2018-01-20T16:17:21.835Z,1.60
2018-01-20T16:19:49.317Z,1.20
2018-01-20T16:22:16.787Z,1.67
2018-01-20T16:24:45.613Z,1.83
2018-01-20T16:27:13.239Z,4.23
2018-01-20T16:29:41.187Z,3.63
2018-01-20T16:32:08.851Z,2.37
2018-01-20T16:34:36.405Z,2.00
2018-01-20T16:37:03.981Z,2.23
2018-01-20T16:39:32.026Z,2.70
2018-01-20T16:41:59.583Z,2.53
2018-01-20T16:44:27.104Z,2.73
2018-01-20T16:46:54.654Z,1.97
2018-01-20T16:49:22.698Z,2.20
2018-01-20T16:51:51.241Z,2.30
2018-01-20T16:54:19.456Z,2.77
2018-01-20T16:56:46.965Z,2.07
2018-01-20T16:59:14.515Z,4.57
2018-01-20T17:01:42.077Z,6.90
2018-01-20T17:04:09.571Z,12.13
2018-01-20T17:06:37.057Z,3.40
2018-01-20T17:09:04.669Z,13.33
2018-01-20T17:11:32.170Z,19.83
2018-01-20T17:13:59.898Z,19.47
2018-01-20T17:16:27.408Z,13.63
2018-01-20T17:18:54.929Z,16.00
2018-01-20T17:21:22.439Z,25.40
2018-01-20T17:23:49.935Z,20.03
2018-01-20T17:26:17.425Z,17.60
2018-01-20T17:28:44.959Z,12.07
2018-01-20T17:31:12.439Z,7.13
2018-01-20T17:33:40.046Z,5.23
2018-01-20T17:36:07.566Z,5.03
2018-01-20T17:38:36.051Z,4.37
2018-01-20T17:41:03.572Z,3.63
2018-01-20T17:43:31.066Z,4.87
2018-01-20T17:45:58.741Z,8.90
2018-01-20T17:48:26.221Z,9.10
2018-01-20T17:50:53.784Z,5.47
2018-01-20T17:53:21.247Z,5.40
2018-01-20T17:55:48.863Z,4.47
2018-01-20T17:58:16.415Z,3.73
2018-01-20T18:00:44.056Z,4.47
2018-01-20T18:03:16.024Z,4.57
2018-01-20T18:05:43.907Z,5.10
2018-01-20T18:08:11.473Z,3.50
2018-01-20T18:10:39.033Z,3.40
2018-01-20T18:13:07.281Z,3.73
2018-01-20T18:15:34.783Z,4.37
2018-01-20T18:18:02.323Z,3.97
2018-01-20T18:20:29.871Z,4.80
2018-01-20T18:22:57.428Z,10.03
2018-01-20T18:25:24.921Z,8.00
2018-01-20T18:27:52.633Z,5.37
2018-01-20T18:30:20.181Z,5.87
2018-01-20T18:32:47.663Z,8.40
2018-01-20T18:35:15.232Z,5.60
2018-01-20T18:37:42.720Z,5.20
2018-01-20T18:40:10.211Z,14.20
2018-01-20T18:42:37.768Z,7.20
2018-01-20T18:45:05.328Z,7.10
2018-01-20T18:47:32.791Z,6.03
2018-01-20T18:50:00.315Z,6.43
2018-01-20T18:52:28.226Z,7.03
2018-01-20T18:54:55.859Z,8.20
2018-01-20T18:57:23.466Z,7.97
2018-01-20T18:59:51.389Z,7.63
2018-01-20T19:02:18.992Z,7.90
2018-01-20T19:04:46.705Z,7.00
2018-01-20T19:07:14.712Z,6.20
2018-01-20T19:09:42.373Z,5.33
2018-01-20T19:12:10.407Z,4.70
2018-01-20T19:14:38.026Z,4.47
2018-01-20T19:17:05.561Z,5.73
2018-01-20T19:19:33.292Z,6.57
2018-01-20T19:22:03.466Z,7.10
2018-01-20T19:24:31.262Z,6.47
2018-01-20T19:27:00.615Z,6.77
2018-01-20T19:42:24.869Z,6.35
2018-01-20T19:44:53.242Z,6.70
2018-01-20T19:47:21.114Z,7.50
2018-01-20T19:54:58.467Z,7.53
2018-01-20T19:57:27.554Z,8.70
2018-01-20T19:59:55.552Z,9.33
2018-01-20T20:02:23.357Z,9.40
2018-01-20T20:04:50.913Z,9.93
2018-01-20T20:07:18.657Z,9.13
2018-01-20T20:09:47.452Z,10.03
2018-01-20T20:14:51.982Z,9.80
2018-01-20T20:30:14.527Z,11.63
2018-01-20T20:32:42.781Z,13.35
2018-01-20T20:35:10.398Z,13.90
2018-01-20T20:37:37.919Z,13.13
2018-01-20T20:40:07.297Z,13.83
2018-01-20T20:58:30.689Z,11.10
2018-01-20T21:00:58.711Z,11.10
2018-01-20T21:03:26.580Z,12.20
2018-01-20T21:05:54.157Z,12.50
2018-01-20T21:08:23.995Z,11.50
2018-01-20T21:19:41.036Z,12.00
2018-01-20T21:22:10.644Z,10.60
2018-01-20T21:24:38.842Z,11.07
2018-01-20T21:27:09.657Z,10.67
2018-01-20T21:29:45.445Z,10.33
2018-01-20T21:32:13.061Z,10.53
2018-01-20T21:34:41.046Z,10.47
2018-01-20T21:37:09.545Z,10.07
2018-01-20T21:39:37.228Z,10.47
2018-01-20T21:42:06.261Z,9.33
2018-01-20T21:44:33.902Z,9.07
2018-01-20T21:47:01.580Z,9.50
2018-01-20T21:49:29.168Z,9.03
2018-01-20T21:51:57.119Z,8.60
2018-01-20T21:54:24.861Z,8.70
2018-01-20T21:56:53.333Z,8.83
2018-01-20T21:59:21.202Z,8.10
2018-01-20T22:01:50.080Z,8.90
2018-01-20T22:04:17.685Z,8.87
2018-01-20T22:06:45.173Z,8.20
2018-01-20T22:09:12.677Z,9.17
2018-01-20T22:11:40.190Z,8.67
2018-01-20T22:14:08.338Z,10.20
2018-01-20T22:16:38.012Z,9.37
2018-01-20T22:19:05.978Z,8.60
2018-01-20T22:21:33.453Z,8.30
2018-01-20T22:24:01.083Z,8.40
2018-01-20T22:26:28.603Z,8.60
2018-01-20T22:28:59.050Z,8.63
2018-01-20T22:31:26.704Z,9.50
2018-01-20T22:33:55.080Z,9.40
2018-01-20T22:36:22.800Z,9.17
2018-01-20T22:38:51.661Z,10.40
2018-01-20T22:41:19.266Z,9.20
2018-01-20T22:43:46.930Z,9.87
2018-01-20T22:48:47.718Z,8.70
2018-01-20T22:51:15.214Z,10.30
2018-01-20T22:53:44.105Z,9.93
2018-01-20T22:56:13.751Z,9.67
2018-01-20T22:58:41.570Z,10.20
2018-01-20T23:01:14.688Z,10.30
2018-01-20T23:03:45.401Z,9.57
2018-01-20T23:06:14.371Z,11.20
2018-01-20T23:08:42.286Z,11.23
2018-01-20T23:11:09.846Z,10.10
2018-01-20T23:13:37.348Z,11.33
2018-01-20T23:16:04.887Z,11.43
2018-01-20T23:18:32.395Z,11.63
2018-01-20T23:20:59.916Z,11.23
2018-01-20T23:23:27.403Z,11.10
2018-01-20T23:25:54.887Z,11.80
2018-01-20T23:28:22.427Z,10.73
2018-01-20T23:30:49.914Z,12.20
2018-01-20T23:33:19.200Z,11.20
2018-01-20T23:35:46.721Z,11.43
2018-01-20T23:38:14.216Z,11.97
2018-01-20T23:40:41.763Z,12.50
2018-01-20T23:43:09.231Z,11.97
2018-01-20T23:45:36.753Z,13.90
2018-01-20T23:48:04.231Z,12.50
2018-01-20T23:50:31.774Z,12.87
2018-01-20T23:52:59.415Z,12.13
2018-01-20T23:55:27.010Z,13.27
2018-01-20T23:57:54.540Z,13.07
